sensor_id;sensor_type;location;lat;lon;timestamp;pressure;altitude;pressure_sealevel;temperature
45976;BMP280;31696;42.668;23.322;2023-10-13T00:01:05;95179.28;;;11.67
45976;BMP280;31696;42.668;23.322;2023-10-13T00:03:07;95186.19;;;11.57
45976;BMP280;31696;42.668;23.322;2023-10-13T00:05:14;95164.56;;;11.62
45976;BMP280;31696;42.668;23.322;2023-10-13T00:07:16;95164.84;;;11.43
45976;BMP280;31696;42.668;23.322;2023-10-13T00:09:16;95186.53;;;11.53
45976;BMP280;31696;42.668;23.322;2023-10-13T00:11:17;95168.16;;;11.59
45976;BMP280;31696;42.668;23.322;2023-10-13T00:13:18;95159.84;;;11.60
45976;BMP280;31696;42.668;23.322;2023-10-13T00:15:20;95166.06;;;11.50
45976;BMP280;31696;42.668;23.322;2023-10-13T00:17:28;95162.94;;;11.44
45976;BMP280;31696;42.668;23.322;2023-10-13T00:19:28;95166.22;;;11.37
45976;BMP280;31696;42.668;23.322;2023-10-13T00:21:29;95161.19;;;11.31
45976;BMP280;31696;42.668;23.322;2023-10-13T00:23:32;95161.00;;;11.22
45976;BMP280;31696;42.668;23.322;2023-10-13T00:25:33;95156.34;;;11.43
45976;BMP280;31696;42.668;23.322;2023-10-13T00:27:43;95153.25;;;11.59
45976;BMP280;31696;42.668;23.322;2023-10-13T00:29:44;95154.66;;;11.60
45976;BMP280;31696;42.668;23.322;2023-10-13T00:31:46;95152.91;;;11.48
45976;BMP280;31696;42.668;23.322;2023-10-13T00:33:48;95159.81;;;11.38
45976;BMP280;31696;42.668;23.322;2023-10-13T00:35:49;95158.09;;;11.40
45976;BMP280;31696;42.668;23.322;2023-10-13T00:37:52;95165.19;;;11.40
45976;BMP280;31696;42.668;23.322;2023-10-13T00:39:57;95164.34;;;11.45
45976;BMP280;31696;42.668;23.322;2023-10-13T00:41:58;95173.53;;;11.46
45976;BMP280;31696;42.668;23.322;2023-10-13T00:43:58;95170.41;;;11.40
45976;BMP280;31696;42.668;23.322;2023-10-13T00:46:07;95171.22;;;11.35
45976;BMP280;31696;42.668;23.322;2023-10-13T00:48:07;95171.94;;;11.43
45976;BMP280;31696;42.668;23.322;2023-10-13T00:50:11;95173.38;;;11.51
45976;BMP280;31696;42.668;23.322;2023-10-13T00:52:15;95168.16;;;11.51
45976;BMP280;31696;42.668;23.322;2023-10-13T00:54:18;95163.47;;;11.50
45976;BMP280;31696;42.668;23.322;2023-10-13T00:56:19;95169.91;;;11.41
45976;BMP280;31696;42.668;23.322;2023-10-13T00:58:27;95157.72;;;11.44
45976;BMP280;31696;42.668;23.322;2023-10-13T01:00:32;95173.88;;;11.50
45976;BMP280;31696;42.668;23.322;2023-10-13T01:02:32;95170.41;;;11.40
45976;BMP280;31696;42.668;23.322;2023-10-13T01:04:36;95183.69;;;11.29
45976;BMP280;31696;42.668;23.322;2023-10-13T01:06:36;95168.59;;;11.27
45976;BMP280;31696;42.668;23.322;2023-10-13T01:08:38;95173.50;;;11.31
45976;BMP280;31696;42.668;23.322;2023-10-13T01:10:38;95170.91;;;11.38
45976;BMP280;31696;42.668;23.322;2023-10-13T01:12:38;95196.69;;;11.29
45976;BMP280;31696;42.668;23.322;2023-10-13T01:14:39;95168.97;;;11.24
45976;BMP280;31696;42.668;23.322;2023-10-13T01:16:39;95168.97;;;11.24
45976;BMP280;31696;42.668;23.322;2023-10-13T01:18:40;95180.25;;;11.26
45976;BMP280;31696;42.668;23.322;2023-10-13T01:20:47;95176.00;;;11.08
45976;BMP280;31696;42.668;23.322;2023-10-13T01:22:52;95174.13;;;11.08
45976;BMP280;31696;42.668;23.322;2023-10-13T01:24:56;95167.50;;;11.07
45976;BMP280;31696;42.668;23.322;2023-10-13T01:27:16;95177.59;;;11.11
45976;BMP280;31696;42.668;23.322;2023-10-13T01:29:17;95191.81;;;11.18
45976;BMP280;31696;42.668;23.322;2023-10-13T01:31:19;95169.47;;;11.15
45976;BMP280;31696;42.668;23.322;2023-10-13T01:33:29;95171.56;;;11.16
45976;BMP280;31696;42.668;23.322;2023-10-13T01:35:29;95171.19;;;11.20
45976;BMP280;31696;42.668;23.322;2023-10-13T01:37:37;95168.06;;;11.14
45976;BMP280;31696;42.668;23.322;2023-10-13T01:39:37;95175.53;;;10.81
45976;BMP280;31696;42.668;23.322;2023-10-13T01:41:38;95177.63;;;10.83
45976;BMP280;31696;42.668;23.322;2023-10-13T01:43:39;95182.13;;;10.82
45976;BMP280;31696;42.668;23.322;2023-10-13T01:45:40;95173.84;;;10.91
45976;BMP280;31696;42.668;23.322;2023-10-13T01:47:47;95186.41;;;11.00
45976;BMP280;31696;42.668;23.322;2023-10-13T01:49:50;95178.94;;;11.12
45976;BMP280;31696;42.668;23.322;2023-10-13T01:51:51;95184.31;;;11.06
45976;BMP280;31696;42.668;23.322;2023-10-13T01:53:51;95178.06;;;11.02
45976;BMP280;31696;42.668;23.322;2023-10-13T01:55:56;95183.03;;;10.85
45976;BMP280;31696;42.668;23.322;2023-10-13T01:58:05;95177.34;;;10.94
45976;BMP280;31696;42.668;23.322;2023-10-13T02:00:14;95174.41;;;10.97
45976;BMP280;31696;42.668;23.322;2023-10-13T02:02:20;95168.84;;;10.93
45976;BMP280;31696;42.668;23.322;2023-10-13T02:04:30;95171.47;;;10.93
45976;BMP280;31696;42.668;23.322;2023-10-13T02:06:42;95167.75;;;10.81
45976;BMP280;31696;42.668;23.322;2023-10-13T02:08:43;95195.09;;;10.75
45976;BMP280;31696;42.668;23.322;2023-10-13T02:10:45;95170.19;;;10.79
45976;BMP280;31696;42.668;23.322;2023-10-13T02:12:45;95182.69;;;10.88
45976;BMP280;31696;42.668;23.322;2023-10-13T02:14:45;95156.75;;;10.96
45976;BMP280;31696;42.668;23.322;2023-10-13T02:16:46;95166.25;;;10.86
45976;BMP280;31696;42.668;23.322;2023-10-13T02:18:47;95162.03;;;10.83
45976;BMP280;31696;42.668;23.322;2023-10-13T02:20:54;95160.66;;;10.82
45976;BMP280;31696;42.668;23.322;2023-10-13T02:22:55;95161.00;;;10.78
45976;BMP280;31696;42.668;23.322;2023-10-13T02:24:55;95150.88;;;10.67
45976;BMP280;31696;42.668;23.322;2023-10-13T02:27:01;95166.47;;;10.67
45976;BMP280;31696;42.668;23.322;2023-10-13T02:29:07;95165.34;;;10.83
45976;BMP280;31696;42.668;23.322;2023-10-13T02:31:08;95162.03;;;10.75
45976;BMP280;31696;42.668;23.322;2023-10-13T02:33:08;95168.91;;;10.73
45976;BMP280;31696;42.668;23.322;2023-10-13T02:35:11;95166.84;;;10.71
45976;BMP280;31696;42.668;23.322;2023-10-13T02:37:17;95165.06;;;10.66
45976;BMP280;31696;42.668;23.322;2023-10-13T02:39:19;95155.38;;;10.67
45976;BMP280;31696;42.668;23.322;2023-10-13T02:41:28;95161.28;;;10.67
45976;BMP280;31696;42.668;23.322;2023-10-13T02:43:29;95166.69;;;10.77
45976;BMP280;31696;42.668;23.322;2023-10-13T02:45:33;95166.47;;;10.67
45976;BMP280;31696;42.668;23.322;2023-10-13T02:47:36;95181.97;;;10.52
45976;BMP280;31696;42.668;23.322;2023-10-13T02:49:37;95182.66;;;10.45
45976;BMP280;31696;42.668;23.322;2023-10-13T02:51:38;95181.50;;;10.33
45976;BMP280;31696;42.668;23.322;2023-10-13T02:53:43;95183.16;;;10.51
45976;BMP280;31696;42.668;23.322;2023-10-13T02:55:50;95186.66;;;10.53
45976;BMP280;31696;42.668;23.322;2023-10-13T02:57:51;95191.66;;;10.51
45976;BMP280;31696;42.668;23.322;2023-10-13T02:59:55;95192.09;;;10.63
45976;BMP280;31696;42.668;23.322;2023-10-13T03:02:15;95174.81;;;10.73
45976;BMP280;31696;42.668;23.322;2023-10-13T03:04:25;95185.50;;;10.62
45976;BMP280;31696;42.668;23.322;2023-10-13T03:06:26;95190.47;;;10.52
45976;BMP280;31696;42.668;23.322;2023-10-13T03:08:33;95201.75;;;10.55
45976;BMP280;31696;42.668;23.322;2023-10-13T03:10:34;95186.91;;;10.63
45976;BMP280;31696;42.668;23.322;2023-10-13T03:12:40;95201.34;;;10.51
45976;BMP280;31696;42.668;23.322;2023-10-13T03:14:40;95190.56;;;10.39
45976;BMP280;31696;42.668;23.322;2023-10-13T03:16:42;95189.59;;;10.50
45976;BMP280;31696;42.668;23.322;2023-10-13T03:18:43;95194.25;;;10.51
45976;BMP280;31696;42.668;23.322;2023-10-13T03:20:56;95196.81;;;10.44
45976;BMP280;31696;42.668;23.322;2023-10-13T03:22:58;95190.22;;;10.43
45976;BMP280;31696;42.668;23.322;2023-10-13T03:24:58;95197.88;;;10.48
45976;BMP280;31696;42.668;23.322;2023-10-13T03:27:05;95188.69;;;10.47
45976;BMP280;31696;42.668;23.322;2023-10-13T03:29:09;95185.78;;;10.51
45976;BMP280;31696;42.668;23.322;2023-10-13T03:31:13;95185.41;;;10.47
45976;BMP280;31696;42.668;23.322;2023-10-13T03:33:18;95186.91;;;10.35
45976;BMP280;31696;42.668;23.322;2023-10-13T03:35:26;95194.69;;;10.35
45976;BMP280;31696;42.668;23.322;2023-10-13T03:37:37;95190.47;;;10.32
45976;BMP280;31696;42.668;23.322;2023-10-13T03:39:38;95190.56;;;10.39
45976;BMP280;31696;42.668;23.322;2023-10-13T03:41:43;95182.94;;;10.41
45976;BMP280;31696;42.668;23.322;2023-10-13T03:43:45;95179.38;;;10.24
45976;BMP280;31696;42.668;23.322;2023-10-13T03:45:45;95179.41;;;10.31
45976;BMP280;31696;42.668;23.322;2023-10-13T03:47:52;95177.66;;;10.26
45976;BMP280;31696;42.668;23.322;2023-10-13T03:49:53;95173.72;;;10.33
45976;BMP280;31696;42.668;23.322;2023-10-13T03:52:13;95174.09;;;10.37
45976;BMP280;31696;42.668;23.322;2023-10-13T03:54:14;95162.78;;;10.27
45976;BMP280;31696;42.668;23.322;2023-10-13T03:56:16;95159.44;;;10.19
45976;BMP280;31696;42.668;23.322;2023-10-13T03:58:26;95159.13;;;10.02
45976;BMP280;31696;42.668;23.322;2023-10-13T04:00:26;95140.53;;;9.90
45976;BMP280;31696;42.668;23.322;2023-10-13T04:02:27;95172.94;;;9.96
45976;BMP280;31696;42.668;23.322;2023-10-13T04:04:28;95148.75;;;10.02
45976;BMP280;31696;42.668;23.322;2023-10-13T04:06:37;95148.38;;;9.97
45976;BMP280;31696;42.668;23.322;2023-10-13T04:08:46;95149.38;;;9.94
45976;BMP280;31696;42.668;23.322;2023-10-13T04:10:49;95148.56;;;9.99
45976;BMP280;31696;42.668;23.322;2023-10-13T04:12:52;95154.88;;;9.91
45976;BMP280;31696;42.668;23.322;2023-10-13T04:15:11;95145.53;;;10.09
45976;BMP280;31696;42.668;23.322;2023-10-13T04:17:18;95144.31;;;10.10
45976;BMP280;31696;42.668;23.322;2023-10-13T04:19:27;95170.41;;;10.04
45976;BMP280;31696;42.668;23.322;2023-10-13T04:21:29;95162.91;;;10.00
45976;BMP280;31696;42.668;23.322;2023-10-13T04:23:38;95158.50;;;10.09
45976;BMP280;31696;42.668;23.322;2023-10-13T04:25:58;95157.47;;;10.12
45976;BMP280;31696;42.668;23.322;2023-10-13T04:28:11;95187.75;;;10.09
45976;BMP280;31696;42.668;23.322;2023-10-13T04:30:15;95163.69;;;10.09
45976;BMP280;31696;42.668;23.322;2023-10-13T04:32:26;95164.88;;;10.08
45976;BMP280;31696;42.668;23.322;2023-10-13T04:34:33;95176.78;;;10.03
45976;BMP280;31696;42.668;23.322;2023-10-13T04:36:39;95161.03;;;10.01
45976;BMP280;31696;42.668;23.322;2023-10-13T04:38:46;95175.09;;;10.06
45976;BMP280;31696;42.668;23.322;2023-10-13T04:41:04;95184.34;;;10.14
45976;BMP280;31696;42.668;23.322;2023-10-13T04:43:20;95168.91;;;10.16
45976;BMP280;31696;42.668;23.322;2023-10-13T04:45:33;95182.56;;;10.09
45976;BMP280;31696;42.668;23.322;2023-10-13T04:47:33;95179.97;;;10.09
45976;BMP280;31696;42.668;23.322;2023-10-13T04:49:41;95184.75;;;10.05
45976;BMP280;31696;42.668;23.322;2023-10-13T04:51:48;95187.69;;;10.22
45976;BMP280;31696;42.668;23.322;2023-10-13T04:53:58;95190.44;;;10.24
45976;BMP280;31696;42.668;23.322;2023-10-13T04:56:10;95188.72;;;10.27
45976;BMP280;31696;42.668;23.322;2023-10-13T04:58:29;95194.25;;;10.23
45976;BMP280;31696;42.668;23.322;2023-10-13T05:00:33;95202.19;;;10.25
45976;BMP280;31696;42.668;23.322;2023-10-13T05:02:46;95207.75;;;10.22
45976;BMP280;31696;42.668;23.322;2023-10-13T05:04:55;95213.00;;;10.29
45976;BMP280;31696;42.668;23.322;2023-10-13T05:07:11;95209.84;;;10.31
45976;BMP280;31696;42.668;23.322;2023-10-13T05:09:29;95210.25;;;10.35
45976;BMP280;31696;42.668;23.322;2023-10-13T05:11:48;95214.06;;;10.34
45976;BMP280;31696;42.668;23.322;2023-10-13T05:14:07;95217.97;;;10.27
45976;BMP280;31696;42.668;23.322;2023-10-13T05:16:26;95215.84;;;10.39
45976;BMP280;31696;42.668;23.322;2023-10-13T05:18:44;95228.94;;;10.33
45976;BMP280;31696;42.668;23.322;2023-10-13T05:21:03;95225.28;;;10.29
45976;BMP280;31696;42.668;23.322;2023-10-13T05:23:22;95228.63;;;10.37
45976;BMP280;31696;42.668;23.322;2023-10-13T05:25:41;95224.53;;;10.49
45976;BMP280;31696;42.668;23.322;2023-10-13T05:27:59;95236.13;;;10.48
45976;BMP280;31696;42.668;23.322;2023-10-13T05:30:18;95237.91;;;10.53
45976;BMP280;31696;42.668;23.322;2023-10-13T05:32:38;95232.91;;;10.55
45976;BMP280;31696;42.668;23.322;2023-10-13T05:34:56;95236.03;;;10.61
45976;BMP280;31696;42.668;23.322;2023-10-13T05:37:15;95235.91;;;10.67
45976;BMP280;31696;42.668;23.322;2023-10-13T05:39:34;95236.59;;;10.67
45976;BMP280;31696;42.668;23.322;2023-10-13T05:41:53;95242.00;;;10.69
45976;BMP280;31696;42.668;23.322;2023-10-13T05:44:12;95241.31;;;10.69
45976;BMP280;31696;42.668;23.322;2023-10-13T05:46:31;95254.22;;;10.61
45976;BMP280;31696;42.668;23.322;2023-10-13T05:48:37;95275.31;;;10.78
45976;BMP280;31696;42.668;23.322;2023-10-13T05:51:06;95251.47;;;10.87
45976;BMP280;31696;42.668;23.322;2023-10-13T05:53:25;95252.19;;;10.95
45976;BMP280;31696;42.668;23.322;2023-10-13T05:55:45;95251.16;;;10.98
45976;BMP280;31696;42.668;23.322;2023-10-13T05:58:04;95256.41;;;11.06
45976;BMP280;31696;42.668;23.322;2023-10-13T06:00:23;95249.06;;;11.25
45976;BMP280;31696;42.668;23.322;2023-10-13T06:02:42;95267.94;;;11.26
45976;BMP280;31696;42.668;23.322;2023-10-13T06:05:04;95247.00;;;11.31
45976;BMP280;31696;42.668;23.322;2023-10-13T06:07:23;95253.03;;;11.34
45976;BMP280;31696;42.668;23.322;2023-10-13T06:09:43;95255.19;;;11.58
45976;BMP280;31696;42.668;23.322;2023-10-13T06:12:02;95260.81;;;11.62
45976;BMP280;31696;42.668;23.322;2023-10-13T06:14:20;95261.16;;;11.74
45976;BMP280;31696;42.668;23.322;2023-10-13T06:16:39;95270.56;;;11.92
45976;BMP280;31696;42.668;23.322;2023-10-13T06:18:58;95263.47;;;11.92
45976;BMP280;31696;42.668;23.322;2023-10-13T06:21:17;95274.41;;;11.98
45976;BMP280;31696;42.668;23.322;2023-10-13T06:23:37;95275.78;;;12.14
45976;BMP280;31696;42.668;23.322;2023-10-13T06:26:00;95274.03;;;12.02
45976;BMP280;31696;42.668;23.322;2023-10-13T06:28:19;95275.97;;;12.16
45976;BMP280;31696;42.668;23.322;2023-10-13T06:30:38;95270.91;;;12.64
45976;BMP280;31696;42.668;23.322;2023-10-13T06:32:38;95280.31;;;12.74
45976;BMP280;31696;42.668;23.322;2023-10-13T06:34:39;95284.63;;;12.42
45976;BMP280;31696;42.668;23.322;2023-10-13T06:36:46;95281.19;;;12.47
45976;BMP280;31696;42.668;23.322;2023-10-13T06:38:47;95269.88;;;12.52
45976;BMP280;31696;42.668;23.322;2023-10-13T06:40:55;95273.69;;;12.51
45976;BMP280;31696;42.668;23.322;2023-10-13T06:42:56;95271.28;;;12.53
45976;BMP280;31696;42.668;23.322;2023-10-13T06:45:12;95265.72;;;12.64
45976;BMP280;31696;42.668;23.322;2023-10-13T06:47:12;95266.38;;;12.80
45976;BMP280;31696;42.668;23.322;2023-10-13T06:49:13;95267.53;;;13.09
45976;BMP280;31696;42.668;23.322;2023-10-13T06:51:14;95273.50;;;13.34
45976;BMP280;31696;42.668;23.322;2023-10-13T06:53:25;95270.94;;;13.91
45976;BMP280;31696;42.668;23.322;2023-10-13T06:55:29;95275.28;;;13.88
45976;BMP280;31696;42.668;23.322;2023-10-13T06:57:35;95266.09;;;14.12
45976;BMP280;31696;42.668;23.322;2023-10-13T06:59:35;95269.38;;;14.37
45976;BMP280;31696;42.668;23.322;2023-10-13T07:01:36;95265.22;;;14.51
45976;BMP280;31696;42.668;23.322;2023-10-13T07:03:41;95257.47;;;15.22
45976;BMP280;31696;42.668;23.322;2023-10-13T07:05:42;95258.47;;;15.90
45976;BMP280;31696;42.668;23.322;2023-10-13T07:07:42;95254.16;;;16.40
45976;BMP280;31696;42.668;23.322;2023-10-13T07:09:44;95243.94;;;16.82
45976;BMP280;31696;42.668;23.322;2023-10-13T07:11:58;95235.63;;;17.55
45976;BMP280;31696;42.668;23.322;2023-10-13T07:14:01;95241.41;;;17.84
45976;BMP280;31696;42.668;23.322;2023-10-13T07:16:09;95248.72;;;17.86
45976;BMP280;31696;42.668;23.322;2023-10-13T07:18:13;95252.81;;;18.19
45976;BMP280;31696;42.668;23.322;2023-10-13T07:20:14;95251.94;;;18.26
45976;BMP280;31696;42.668;23.322;2023-10-13T07:22:15;95254.41;;;18.67
45976;BMP280;31696;42.668;23.322;2023-10-13T07:24:21;95264.47;;;18.82
45976;BMP280;31696;42.668;23.322;2023-10-13T07:26:22;95286.66;;;19.23
45976;BMP280;31696;42.668;23.322;2023-10-13T07:28:23;95251.97;;;19.15
45976;BMP280;31696;42.668;23.322;2023-10-13T07:30:24;95255.28;;;19.50
45976;BMP280;31696;42.668;23.322;2023-10-13T07:32:27;95254.03;;;19.51
45976;BMP280;31696;42.668;23.322;2023-10-13T07:34:27;95256.91;;;19.79
45976;BMP280;31696;42.668;23.322;2023-10-13T07:36:31;95267.66;;;20.31
45976;BMP280;31696;42.668;23.322;2023-10-13T07:38:39;95250.63;;;20.46
45976;BMP280;31696;42.668;23.322;2023-10-13T07:40:43;95256.19;;;20.77
45976;BMP280;31696;42.668;23.322;2023-10-13T07:42:51;95255.94;;;20.98
45976;BMP280;31696;42.668;23.322;2023-10-13T07:44:51;95248.28;;;21.43
45976;BMP280;31696;42.668;23.322;2023-10-13T07:46:55;95242.09;;;21.25
45976;BMP280;31696;42.668;23.322;2023-10-13T07:48:59;95239.03;;;21.03
45976;BMP280;31696;42.668;23.322;2023-10-13T07:51:14;95245.28;;;20.57
45976;BMP280;31696;42.668;23.322;2023-10-13T07:53:16;95244.03;;;20.33
45976;BMP280;31696;42.668;23.322;2023-10-13T07:55:19;95240.59;;;20.30
45976;BMP280;31696;42.668;23.322;2023-10-13T07:57:21;95239.25;;;20.18
45976;BMP280;31696;42.668;23.322;2023-10-13T07:59:29;95239.06;;;20.64
45976;BMP280;31696;42.668;23.322;2023-10-13T08:01:29;95244.66;;;20.45
45976;BMP280;31696;42.668;23.322;2023-10-13T08:03:30;95239.59;;;20.49
45976;BMP280;31696;42.668;23.322;2023-10-13T08:05:40;95240.78;;;20.46
45976;BMP280;31696;42.668;23.322;2023-10-13T08:07:56;95242.44;;;20.53
45976;BMP280;31696;42.668;23.322;2023-10-13T08:09:56;95225.03;;;20.48
45976;BMP280;31696;42.668;23.322;2023-10-13T08:11:59;95220.34;;;20.47
45976;BMP280;31696;42.668;23.322;2023-10-13T08:14:01;95232.38;;;20.63
45976;BMP280;31696;42.668;23.322;2023-10-13T08:16:12;95229.53;;;20.09
45976;BMP280;31696;42.668;23.322;2023-10-13T08:18:20;95223.19;;;20.51
45976;BMP280;31696;42.668;23.322;2023-10-13T08:20:33;95237.59;;;20.36
45976;BMP280;31696;42.668;23.322;2023-10-13T08:22:39;95235.31;;;20.30
45976;BMP280;31696;42.668;23.322;2023-10-13T08:24:47;95235.41;;;20.32
45976;BMP280;31696;42.668;23.322;2023-10-13T08:26:48;95241.06;;;19.90
45976;BMP280;31696;42.668;23.322;2023-10-13T08:29:03;95249.00;;;19.67
45976;BMP280;31696;42.668;23.322;2023-10-13T08:31:19;95256.56;;;19.61
45976;BMP280;31696;42.668;23.322;2023-10-13T08:33:22;95258.28;;;19.33
45976;BMP280;31696;42.668;23.322;2023-10-13T08:35:27;95255.22;;;19.48
45976;BMP280;31696;42.668;23.322;2023-10-13T08:37:34;95244.75;;;19.50
45976;BMP280;31696;42.668;23.322;2023-10-13T08:39:48;95235.13;;;19.78
45976;BMP280;31696;42.668;23.322;2023-10-13T08:42:03;95226.94;;;19.97
45976;BMP280;31696;42.668;23.322;2023-10-13T08:44:13;95237.94;;;20.05
45976;BMP280;31696;42.668;23.322;2023-10-13T08:46:32;95239.41;;;19.97
45976;BMP280;31696;42.668;23.322;2023-10-13T08:48:55;95230.63;;;20.29
45976;BMP280;31696;42.668;23.322;2023-10-13T08:51:04;95239.78;;;19.91
45976;BMP280;31696;42.668;23.322;2023-10-13T08:53:11;95239.91;;;19.82
45976;BMP280;31696;42.668;23.322;2023-10-13T08:55:26;95235.03;;;19.41
45976;BMP280;31696;42.668;23.322;2023-10-13T08:57:49;95229.97;;;19.45
45976;BMP280;31696;42.668;23.322;2023-10-13T08:59:53;95229.53;;;19.37
45976;BMP280;31696;42.668;23.322;2023-10-13T09:01:54;95225.19;;;19.30
45976;BMP280;31696;42.668;23.322;2023-10-13T09:04:16;95236.63;;;19.23
45976;BMP280;31696;42.668;23.322;2023-10-13T09:06:19;95231.38;;;19.23
45976;BMP280;31696;42.668;23.322;2023-10-13T09:08:26;95219.94;;;19.30
45976;BMP280;31696;42.668;23.322;2023-10-13T09:10:35;95229.53;;;19.37
45976;BMP280;31696;42.668;23.322;2023-10-13T09:12:53;95233.91;;;19.21
45976;BMP280;31696;42.668;23.322;2023-10-13T09:15:07;95226.13;;;19.23
45976;BMP280;31696;42.668;23.322;2023-10-13T09:17:14;95243.72;;;19.21
45976;BMP280;31696;42.668;23.322;2023-10-13T09:19:20;95238.34;;;19.53
45976;BMP280;31696;42.668;23.322;2023-10-13T09:21:21;95229.41;;;19.58
45976;BMP280;31696;42.668;23.322;2023-10-13T09:23:36;95218.75;;;19.68
45976;BMP280;31696;42.668;23.322;2023-10-13T09:25:45;95219.88;;;19.77
45976;BMP280;31696;42.668;23.322;2023-10-13T09:27:58;95214.59;;;19.77
45976;BMP280;31696;42.668;23.322;2023-10-13T09:30:01;95203.69;;;19.94
45976;BMP280;31696;42.668;23.322;2023-10-13T09:32:18;95201.31;;;20.11
45976;BMP280;31696;42.668;23.322;2023-10-13T09:34:21;95204.34;;;20.06
45976;BMP280;31696;42.668;23.322;2023-10-13T09:36:23;95200.22;;;20.03
45976;BMP280;31696;42.668;23.322;2023-10-13T09:38:27;95203.41;;;20.38
45976;BMP280;31696;42.668;23.322;2023-10-13T09:40:27;95193.56;;;20.77
45976;BMP280;31696;42.668;23.322;2023-10-13T09:42:46;95202.88;;;20.53
45976;BMP280;31696;42.668;23.322;2023-10-13T09:44:47;95195.97;;;20.73
45976;BMP280;31696;42.668;23.322;2023-10-13T09:46:51;95187.97;;;20.85
45976;BMP280;31696;42.668;23.322;2023-10-13T09:48:54;95186.47;;;21.07
45976;BMP280;31696;42.668;23.322;2023-10-13T09:51:12;95189.03;;;20.80
45976;BMP280;31696;42.668;23.322;2023-10-13T09:53:12;95186.41;;;20.66
45976;BMP280;31696;42.668;23.322;2023-10-13T09:55:27;95182.75;;;20.46
45976;BMP280;31696;42.668;23.322;2023-10-13T09:57:31;95186.94;;;20.51
45976;BMP280;31696;42.668;23.322;2023-10-13T09:59:50;95191.09;;;20.43
45976;BMP280;31696;42.668;23.322;2023-10-13T10:01:52;95181.00;;;20.64
45976;BMP280;31696;42.668;23.322;2023-10-13T10:04:07;95177.03;;;20.77
45976;BMP280;31696;42.668;23.322;2023-10-13T10:06:09;95174.69;;;20.83
45976;BMP280;31696;42.668;23.322;2023-10-13T10:08:25;95170.72;;;20.95
45976;BMP280;31696;42.668;23.322;2023-10-13T10:10:56;95173.03;;;21.17
45976;BMP280;31696;42.668;23.322;2023-10-13T10:13:02;95164.66;;;21.06
45976;BMP280;31696;42.668;23.322;2023-10-13T10:17:37;95152.72;;;21.05
45976;BMP280;31696;42.668;23.322;2023-10-13T10:19:49;95155.16;;;21.01
45976;BMP280;31696;42.668;23.322;2023-10-13T10:21:49;95148.09;;;21.33
45976;BMP280;31696;42.668;23.322;2023-10-13T10:24:16;95142.97;;;21.51
45976;BMP280;31696;42.668;23.322;2023-10-13T10:26:29;95138.72;;;21.73
45976;BMP280;31696;42.668;23.322;2023-10-13T10:28:36;95135.91;;;21.69
45976;BMP280;31696;42.668;23.322;2023-10-13T10:30:37;95136.03;;;21.87
45976;BMP280;31696;42.668;23.322;2023-10-13T10:32:42;95137.97;;;21.86
45976;BMP280;31696;42.668;23.322;2023-10-13T10:34:49;95142.91;;;21.78
45976;BMP280;31696;42.668;23.322;2023-10-13T10:36:55;95136.53;;;21.83
45976;BMP280;31696;42.668;23.322;2023-10-13T10:38:58;95136.06;;;21.73
45976;BMP280;31696;42.668;23.322;2023-10-13T10:43:00;95135.34;;;21.86
45976;BMP280;31696;42.668;23.322;2023-10-13T10:45:01;95131.03;;;22.08
45976;BMP280;31696;42.668;23.322;2023-10-13T10:47:13;95130.13;;;21.88
45976;BMP280;31696;42.668;23.322;2023-10-13T10:49:36;95132.03;;;21.72
45976;BMP280;31696;42.668;23.322;2023-10-13T10:51:40;95136.31;;;21.63
45976;BMP280;31696;42.668;23.322;2023-10-13T10:53:44;95133.88;;;21.54
45976;BMP280;31696;42.668;23.322;2023-10-13T10:55:45;95135.81;;;21.67
45976;BMP280;31696;42.668;23.322;2023-10-13T10:57:45;95123.03;;;22.06
45976;BMP280;31696;42.668;23.322;2023-10-13T10:59:49;95126.72;;;22.15
45976;BMP280;31696;42.668;23.322;2023-10-13T11:02:10;95128.38;;;21.93
45976;BMP280;31696;42.668;23.322;2023-10-13T11:04:15;95131.22;;;22.12
45976;BMP280;31696;42.668;23.322;2023-10-13T11:06:18;95129.56;;;22.05
45976;BMP280;31696;42.668;23.322;2023-10-13T11:08:21;95123.19;;;22.10
45976;BMP280;31696;42.668;23.322;2023-10-13T11:10:27;95123.09;;;22.08
45976;BMP280;31696;42.668;23.322;2023-10-13T11:12:28;95117.28;;;21.96
45976;BMP280;31696;42.668;23.322;2023-10-13T11:14:29;95118.50;;;22.09
45976;BMP280;31696;42.668;23.322;2023-10-13T11:16:29;95116.38;;;22.36
45976;BMP280;31696;42.668;23.322;2023-10-13T11:18:34;95136.28;;;22.22
45976;BMP280;31696;42.668;23.322;2023-10-13T11:20:41;95116.13;;;22.30
45976;BMP280;31696;42.668;23.322;2023-10-13T11:22:47;95103.06;;;22.34
45976;BMP280;31696;42.668;23.322;2023-10-13T11:24:48;95111.69;;;22.19
45976;BMP280;31696;42.668;23.322;2023-10-13T11:26:49;95105.19;;;22.53
45976;BMP280;31696;42.668;23.322;2023-10-13T11:28:50;95089.84;;;22.50
45976;BMP280;31696;42.668;23.322;2023-10-13T11:30:50;95088.97;;;22.61
45976;BMP280;31696;42.668;23.322;2023-10-13T11:32:57;95092.06;;;22.71
45976;BMP280;31696;42.668;23.322;2023-10-13T11:34:58;95098.81;;;22.58
45976;BMP280;31696;42.668;23.322;2023-10-13T11:36:59;95096.31;;;22.63
45976;BMP280;31696;42.668;23.322;2023-10-13T11:39:19;95085.72;;;22.78
45976;BMP280;31696;42.668;23.322;2023-10-13T11:41:33;95084.28;;;22.60
45976;BMP280;31696;42.668;23.322;2023-10-13T11:43:35;95086.41;;;22.63
45976;BMP280;31696;42.668;23.322;2023-10-13T11:45:52;95085.00;;;22.44
45976;BMP280;31696;42.668;23.322;2023-10-13T11:48:12;95073.97;;;22.34
45976;BMP280;31696;42.668;23.322;2023-10-13T11:50:14;95083.69;;;22.61
45976;BMP280;31696;42.668;23.322;2023-10-13T11:52:26;95093.44;;;22.56
45976;BMP280;31696;42.668;23.322;2023-10-13T11:54:28;95074.81;;;22.54
45976;BMP280;31696;42.668;23.322;2023-10-13T11:56:29;95078.19;;;22.73
45976;BMP280;31696;42.668;23.322;2023-10-13T11:58:29;95078.28;;;22.75
45976;BMP280;31696;42.668;23.322;2023-10-13T12:00:30;95072.16;;;22.70
45976;BMP280;31696;42.668;23.322;2023-10-13T12:02:48;95071.59;;;22.40
45976;BMP280;31696;42.668;23.322;2023-10-13T12:05:07;95069.53;;;22.39
45976;BMP280;31696;42.668;23.322;2023-10-13T12:07:12;95064.06;;;22.50